createdAt,value
2018-03-22T00:01:38.564Z,80.10
2018-03-22T00:04:06.032Z,79.30
2018-03-22T00:06:33.481Z,79.50
2018-03-22T00:09:00.950Z,78.90
2018-03-22T00:11:28.411Z,79.20
2018-03-22T00:13:55.850Z,79.30
2018-03-22T00:16:23.285Z,79.60
2018-03-22T00:18:50.788Z,79.30
2018-03-22T00:21:18.235Z,79.20
2018-03-22T00:23:45.720Z,79.40
2018-03-22T00:26:13.222Z,78.70
2018-03-22T00:28:40.682Z,78.70
2018-03-22T00:31:08.555Z,78.20
2018-03-22T00:33:36.755Z,78.10
2018-03-22T00:36:04.196Z,77.90
2018-03-22T00:38:31.641Z,79.60
2018-03-22T00:40:59.136Z,79.60
2018-03-22T00:43:26.583Z,80.50
2018-03-22T00:45:54.031Z,80.80
2018-03-22T00:48:21.489Z,80.40
2018-03-22T00:50:48.947Z,81.30
2018-03-22T00:53:16.385Z,81.40
2018-03-22T00:55:43.860Z,83.10
2018-03-22T00:58:11.300Z,84.70
2018-03-22T01:00:38.741Z,85.30
2018-03-22T01:03:06.186Z,86.30
2018-03-22T01:05:33.616Z,86.80
2018-03-22T01:08:01.065Z,86.90
2018-03-22T01:10:28.499Z,86.90
2018-03-22T01:12:55.945Z,85.80
2018-03-22T01:15:24.148Z,86.10
2018-03-22T01:17:51.596Z,86.00
2018-03-22T01:20:19.028Z,86.20
2018-03-22T01:22:46.487Z,85.40
2018-03-22T01:25:13.941Z,84.60
2018-03-22T01:27:41.399Z,84.40
2018-03-22T01:30:20.519Z,84.10
2018-03-22T01:32:47.959Z,83.60
2018-03-22T01:35:15.391Z,84.80
2018-03-22T01:37:42.843Z,83.60
2018-03-22T01:40:10.288Z,84.10
2018-03-22T01:42:37.727Z,83.10
2018-03-22T01:45:05.935Z,82.10
2018-03-22T01:47:33.398Z,82.00
2018-03-22T01:50:00.850Z,82.00
2018-03-22T01:52:28.324Z,81.60
2018-03-22T01:54:55.767Z,81.00
2018-03-22T01:57:23.220Z,81.00
2018-03-22T01:59:50.699Z,81.10
2018-03-22T02:02:18.140Z,80.80
2018-03-22T02:04:45.588Z,81.00
2018-03-22T02:07:13.033Z,80.90
2018-03-22T02:09:40.488Z,79.90
2018-03-22T02:12:07.928Z,79.30
2018-03-22T02:14:35.377Z,79.20
2018-03-22T02:17:02.819Z,79.10
2018-03-22T02:19:30.247Z,79.50
2018-03-22T02:21:57.731Z,78.80
2018-03-22T02:24:25.151Z,79.50
2018-03-22T02:26:52.602Z,79.40
2018-03-22T02:29:20.135Z,79.00
2018-03-22T02:31:47.600Z,78.90
2018-03-22T02:34:15.033Z,79.10
2018-03-22T02:36:42.485Z,79.30
2018-03-22T02:39:09.941Z,79.20
2018-03-22T02:41:37.393Z,79.20
2018-03-22T02:44:04.836Z,79.50
2018-03-22T02:46:32.272Z,80.20
2018-03-22T02:48:59.735Z,79.90
2018-03-22T02:51:27.233Z,79.70
2018-03-22T02:53:54.706Z,79.80
2018-03-22T02:56:22.123Z,79.30
2018-03-22T02:58:49.576Z,79.40
2018-03-22T03:01:17.017Z,78.90
2018-03-22T03:03:44.464Z,78.90
2018-03-22T03:06:11.919Z,79.30
2018-03-22T03:08:39.347Z,79.40
2018-03-22T03:11:06.804Z,79.50
2018-03-22T03:13:35.002Z,78.40
2018-03-22T03:16:02.464Z,78.30
2018-03-22T03:18:29.896Z,78.90
2018-03-22T03:20:57.349Z,79.80
2018-03-22T03:23:25.544Z,80.20
2018-03-22T03:25:53.002Z,80.10
2018-03-22T03:28:20.454Z,80.30
2018-03-22T03:30:47.892Z,80.50
2018-03-22T03:33:15.339Z,79.70
2018-03-22T03:35:42.805Z,79.70
2018-03-22T03:38:10.249Z,80.10
2018-03-22T03:40:37.687Z,80.10
2018-03-22T03:43:05.144Z,80.20
2018-03-22T03:45:32.596Z,81.00
2018-03-22T03:48:00.063Z,80.20
2018-03-22T03:50:27.481Z,80.60
2018-03-22T03:52:54.923Z,80.40
2018-03-22T03:55:22.356Z,81.00
2018-03-22T03:57:49.831Z,80.70
2018-03-22T04:00:17.265Z,80.60
2018-03-22T04:02:44.707Z,80.90
2018-03-22T04:05:12.161Z,82.00
2018-03-22T04:07:39.591Z,82.60
2018-03-22T04:10:07.040Z,83.40
2018-03-22T04:12:34.498Z,83.70
2018-03-22T04:15:01.941Z,84.80
2018-03-22T04:17:29.372Z,85.00
2018-03-22T04:19:57.604Z,84.90
2018-03-22T04:22:25.041Z,84.80
2018-03-22T04:24:52.540Z,84.80
2018-03-22T04:27:19.996Z,85.40
2018-03-22T04:29:47.434Z,86.30
2018-03-22T04:32:14.881Z,87.50
2018-03-22T04:34:42.388Z,87.50
2018-03-22T04:37:09.786Z,87.90
2018-03-22T04:39:37.223Z,87.90
2018-03-22T04:42:04.669Z,88.00
2018-03-22T04:44:32.116Z,88.90
2018-03-22T04:46:59.552Z,88.50
2018-03-22T04:49:27.005Z,88.40
2018-03-22T04:51:54.449Z,89.10
2018-03-22T04:54:21.903Z,88.60
2018-03-22T04:56:49.343Z,88.00
2018-03-22T04:59:16.797Z,88.30
2018-03-22T05:01:44.240Z,88.10
2018-03-22T05:04:11.753Z,88.50
2018-03-22T05:06:39.192Z,88.30
2018-03-22T05:09:06.648Z,88.70
2018-03-22T05:11:34.088Z,88.10
2018-03-22T05:14:01.542Z,87.70
2018-03-22T05:16:28.976Z,87.30
2018-03-22T05:18:56.428Z,86.90
2018-03-22T05:21:23.875Z,86.90
2018-03-22T05:23:52.068Z,87.60
2018-03-22T05:26:19.520Z,87.40
2018-03-22T05:28:46.960Z,87.00
2018-03-22T05:31:14.410Z,86.40
2018-03-22T05:33:41.838Z,86.00
2018-03-22T05:36:09.295Z,86.70
2018-03-22T05:38:36.751Z,85.70
2018-03-22T05:41:04.188Z,85.90
2018-03-22T05:43:31.639Z,85.40
2018-03-22T05:45:59.900Z,84.40
2018-03-22T05:48:27.565Z,83.20
2018-03-22T05:50:55.840Z,82.50
2018-03-22T05:53:23.296Z,81.50
2018-03-22T05:55:50.743Z,80.50
2018-03-22T05:58:18.943Z,79.20
2018-03-22T06:00:46.424Z,79.20
2018-03-22T06:03:13.875Z,78.70
2018-03-22T06:05:41.336Z,77.30
2018-03-22T06:08:08.767Z,77.00
2018-03-22T06:10:36.219Z,76.30
2018-03-22T06:13:03.668Z,75.80
2018-03-22T06:15:31.101Z,75.00
2018-03-22T06:17:58.556Z,75.40
2018-03-22T06:20:26.016Z,74.10
2018-03-22T06:22:53.441Z,74.30
2018-03-22T06:25:20.887Z,73.30
2018-03-22T06:27:48.335Z,72.50
2018-03-22T06:30:15.774Z,72.80
2018-03-22T06:32:43.336Z,70.50
2018-03-22T06:35:10.765Z,70.50
2018-03-22T06:37:38.986Z,69.20
2018-03-22T06:40:06.482Z,69.10
2018-03-22T06:42:33.862Z,69.40
2018-03-22T06:45:01.311Z,69.10
2018-03-22T06:47:28.749Z,68.10
2018-03-22T06:49:56.210Z,67.40
2018-03-22T06:52:23.639Z,67.90
2018-03-22T06:54:51.081Z,67.60
2018-03-22T06:57:18.540Z,67.50
2018-03-22T06:59:45.977Z,66.90
2018-03-22T07:02:13.457Z,67.30
2018-03-22T07:04:40.910Z,66.70
2018-03-22T07:07:08.348Z,66.50
2018-03-22T07:09:35.799Z,65.30
2018-03-22T07:12:03.220Z,65.00
2018-03-22T07:14:30.664Z,66.40
2018-03-22T07:16:58.144Z,65.00
2018-03-22T07:19:25.647Z,64.30
2018-03-22T07:21:54.035Z,64.10
2018-03-22T07:24:21.496Z,64.10
2018-03-22T07:26:48.937Z,63.20
2018-03-22T07:29:16.373Z,61.90
2018-03-22T07:31:43.799Z,62.10
2018-03-22T07:34:11.303Z,61.50
2018-03-22T07:36:38.844Z,61.40
2018-03-22T07:39:06.326Z,60.40
2018-03-22T07:41:33.785Z,60.20
2018-03-22T07:44:06.930Z,59.30
2018-03-22T07:46:34.376Z,59.80
2018-03-22T07:49:01.820Z,59.60
2018-03-22T07:51:29.297Z,59.70
2018-03-22T07:53:56.716Z,59.50
2018-03-22T07:56:24.189Z,59.50
2018-03-22T07:58:51.612Z,59.10
2018-03-22T08:01:19.164Z,58.20
2018-03-22T08:03:47.896Z,56.10
2018-03-22T08:06:15.365Z,56.00
2018-03-22T08:08:42.847Z,56.40
2018-03-22T08:11:10.285Z,56.40
2018-03-22T08:13:37.767Z,55.20
2018-03-22T08:16:05.196Z,55.30
2018-03-22T08:18:32.668Z,54.60
2018-03-22T08:21:00.146Z,53.30
2018-03-22T08:23:27.642Z,52.90
2018-03-22T08:25:55.079Z,52.20
2018-03-22T08:28:22.556Z,52.00
2018-03-22T08:30:50.039Z,51.30
2018-03-22T08:33:17.496Z,50.40
2018-03-22T08:35:44.960Z,48.60
2018-03-22T08:38:12.446Z,47.70
2018-03-22T08:40:40.659Z,44.70
2018-03-22T08:43:08.123Z,44.60
2018-03-22T08:45:35.564Z,44.70
2018-03-22T08:48:03.032Z,44.30
2018-03-22T08:50:30.477Z,43.80
2018-03-22T08:52:57.928Z,43.70
2018-03-22T08:55:25.386Z,43.70
2018-03-22T08:57:53.577Z,41.60
2018-03-22T09:00:21.031Z,41.50
2018-03-22T09:02:48.453Z,40.70
2018-03-22T09:05:15.900Z,39.20
2018-03-22T09:07:43.335Z,39.90
2018-03-22T09:10:10.789Z,38.70
2018-03-22T09:12:38.213Z,38.20
2018-03-22T09:15:05.661Z,38.10
2018-03-22T09:17:33.111Z,38.00
2018-03-22T09:20:00.532Z,38.40
2018-03-22T09:22:28.003Z,38.90
2018-03-22T09:24:55.438Z,40.20
2018-03-22T09:27:22.932Z,39.70
2018-03-22T09:29:50.365Z,39.60
2018-03-22T09:32:17.828Z,40.00
2018-03-22T09:34:45.282Z,39.90
2018-03-22T09:37:12.756Z,39.30
2018-03-22T09:39:40.206Z,38.40
2018-03-22T09:42:07.674Z,39.10
2018-03-22T09:44:35.112Z,39.70
2018-03-22T09:47:02.543Z,38.80
2018-03-22T09:49:30.035Z,38.80
2018-03-22T09:51:57.477Z,38.40
2018-03-22T09:54:24.908Z,37.60
2018-03-22T09:56:52.353Z,36.70
2018-03-22T09:59:19.805Z,36.40
2018-03-22T10:01:47.280Z,34.70
2018-03-22T10:04:14.728Z,33.00
2018-03-22T10:06:42.180Z,32.90
2018-03-22T10:09:09.632Z,31.80
2018-03-22T10:11:37.143Z,31.80
2018-03-22T10:14:04.591Z,31.70
2018-03-22T10:16:32.026Z,31.20
2018-03-22T10:18:59.472Z,31.10
2018-03-22T10:21:26.921Z,31.00
2018-03-22T10:23:54.399Z,31.10
2018-03-22T10:26:21.879Z,31.00
2018-03-22T10:28:49.392Z,30.80
2018-03-22T10:31:16.800Z,31.80
2018-03-22T10:33:44.276Z,31.50
2018-03-22T10:36:11.775Z,31.50
2018-03-22T10:38:39.241Z,31.40
2018-03-22T10:41:06.673Z,29.90
2018-03-22T10:43:34.115Z,29.40
2018-03-22T10:46:01.540Z,28.90
2018-03-22T10:48:29.020Z,28.50
2018-03-22T10:50:56.419Z,28.10
2018-03-22T10:53:23.884Z,27.50
2018-03-22T10:55:51.388Z,27.40
2018-03-22T10:58:18.812Z,28.10
2018-03-22T11:00:51.821Z,27.10
2018-03-22T11:03:25.796Z,24.00
2018-03-22T11:05:53.236Z,23.90
2018-03-22T11:08:20.711Z,23.30
2018-03-22T11:10:48.171Z,22.50
2018-03-22T11:13:15.616Z,22.10
2018-03-22T11:15:43.068Z,22.60
2018-03-22T11:18:10.501Z,21.30
2018-03-22T11:20:37.944Z,21.30
2018-03-22T11:23:06.157Z,21.00
2018-03-22T11:25:33.608Z,20.90
2018-03-22T11:28:01.059Z,19.60
2018-03-22T11:30:28.513Z,19.80
2018-03-22T11:32:55.964Z,19.40
2018-03-22T11:35:23.439Z,19.90
2018-03-22T11:37:50.893Z,20.40
2018-03-22T11:40:18.524Z,21.20
2018-03-22T11:42:45.984Z,21.50
2018-03-22T11:45:13.451Z,21.20
2018-03-22T11:47:40.936Z,20.60
2018-03-22T11:50:09.188Z,19.30
2018-03-22T11:52:36.680Z,19.20
2018-03-22T11:55:04.131Z,18.90
2018-03-22T11:57:31.573Z,18.80
2018-03-22T11:59:59.032Z,17.70
2018-03-22T12:02:26.559Z,16.90
2018-03-22T12:04:54.036Z,17.00
2018-03-22T12:07:21.526Z,17.40
2018-03-22T12:09:48.922Z,16.10
2018-03-22T12:12:16.372Z,14.90
2018-03-22T12:14:43.815Z,14.80
2018-03-22T12:17:11.265Z,14.10
2018-03-22T12:19:38.691Z,15.10
2018-03-22T12:22:06.152Z,15.60
2018-03-22T12:24:33.747Z,16.10
2018-03-22T12:27:01.147Z,16.60
2018-03-22T12:29:28.636Z,16.60
2018-03-22T12:31:56.078Z,16.80
2018-03-22T12:34:23.557Z,16.90
2018-03-22T12:36:51.016Z,17.20
2018-03-22T12:39:18.477Z,17.20
2018-03-22T12:41:45.905Z,17.50
2018-03-22T12:44:13.352Z,18.70
2018-03-22T12:46:40.840Z,18.80
2018-03-22T12:49:08.280Z,18.50
2018-03-22T12:51:35.756Z,17.80
2018-03-22T12:54:04.595Z,18.50
2018-03-22T12:56:32.800Z,16.70
2018-03-22T12:59:00.270Z,16.70
2018-03-22T13:01:27.700Z,17.00
2018-03-22T13:03:55.147Z,17.00
2018-03-22T13:06:22.603Z,16.90
2018-03-22T13:08:50.063Z,16.00
2018-03-22T13:11:17.542Z,16.40
2018-03-22T13:13:45.009Z,17.60
2018-03-22T13:16:12.482Z,18.30
2018-03-22T13:18:39.971Z,18.40
2018-03-22T13:21:07.417Z,17.20
2018-03-22T13:23:34.943Z,15.50
2018-03-22T13:26:02.388Z,15.30
2018-03-22T13:28:30.005Z,15.90
2018-03-22T13:30:58.246Z,16.80
2018-03-22T13:33:25.679Z,16.70
2018-03-22T13:35:53.156Z,17.00
2018-03-22T13:38:20.600Z,16.50
2018-03-22T13:40:48.040Z,16.10
2018-03-22T13:43:15.547Z,15.50
2018-03-22T13:45:42.981Z,15.10
2018-03-22T13:48:10.445Z,13.90
2018-03-22T13:50:38.067Z,13.60
2018-03-22T13:53:05.584Z,13.40
2018-03-22T13:55:33.049Z,12.70
2018-03-22T13:58:00.530Z,12.50
2018-03-22T14:00:27.998Z,13.00
2018-03-22T14:02:56.628Z,13.00
2018-03-22T14:05:24.124Z,14.10
2018-03-22T14:07:51.571Z,13.80
2018-03-22T14:10:19.026Z,14.90
2018-03-22T14:12:46.460Z,14.20
2018-03-22T14:15:13.906Z,14.40
2018-03-22T14:17:41.364Z,14.70
2018-03-22T14:20:08.829Z,15.10
2018-03-22T14:22:51.398Z,16.10
2018-03-22T14:25:18.897Z,16.20
2018-03-22T14:27:46.332Z,16.40
2018-03-22T14:30:13.788Z,16.50
2018-03-22T14:32:41.217Z,16.90
2018-03-22T14:35:08.694Z,17.40
2018-03-22T14:37:36.159Z,18.00
2018-03-22T14:40:03.577Z,18.70
2018-03-22T14:42:31.064Z,18.50
2018-03-22T14:44:58.537Z,18.70
2018-03-22T14:47:25.972Z,19.10
2018-03-22T14:49:53.405Z,19.40
2018-03-22T14:52:20.902Z,19.50
2018-03-22T14:54:48.572Z,19.50
2018-03-22T14:57:16.029Z,19.50
2018-03-22T14:59:43.469Z,19.30
2018-03-22T15:02:10.931Z,19.30
2018-03-22T15:04:38.399Z,19.30
2018-03-22T15:07:05.867Z,19.50
2018-03-22T15:09:33.334Z,19.70
2018-03-22T15:12:00.793Z,20.00
2018-03-22T15:14:28.300Z,20.30
2018-03-22T15:16:56.005Z,20.60
2018-03-22T15:19:23.427Z,21.20
2018-03-22T15:21:50.873Z,21.30
2018-03-22T15:24:18.334Z,22.20
2018-03-22T15:26:45.822Z,22.10
2018-03-22T15:29:13.241Z,22.60
2018-03-22T15:31:40.688Z,22.70
2018-03-22T15:34:08.916Z,22.80
2018-03-22T15:36:36.336Z,22.80
2018-03-22T15:39:04.056Z,22.60
2018-03-22T15:41:31.492Z,23.00
2018-03-22T15:43:58.960Z,23.00
2018-03-22T15:46:26.442Z,23.00
2018-03-22T15:48:53.901Z,23.80
2018-03-22T15:51:22.112Z,24.80
2018-03-22T15:53:49.600Z,24.80
2018-03-22T15:56:16.994Z,25.20
2018-03-22T15:58:45.275Z,25.90
2018-03-22T16:01:12.779Z,25.90
2018-03-22T16:03:40.214Z,26.40
2018-03-22T16:06:07.684Z,26.50
2018-03-22T16:08:35.207Z,27.10
2018-03-22T16:11:02.660Z,27.60
2018-03-22T16:13:30.118Z,28.10
2018-03-22T16:15:57.561Z,28.70
2018-03-22T16:18:25.032Z,29.10
2018-03-22T16:20:52.514Z,29.60
2018-03-22T16:23:20.153Z,30.00
2018-03-22T16:25:48.402Z,34.20
2018-03-22T16:28:15.821Z,34.20
2018-03-22T16:30:43.283Z,38.40
2018-03-22T16:33:10.760Z,40.90
2018-03-22T16:35:38.197Z,43.20
2018-03-22T16:38:05.675Z,44.90
2018-03-22T16:40:33.140Z,45.70
2018-03-22T16:43:00.587Z,47.10
2018-03-22T16:45:28.212Z,47.90
2018-03-22T16:47:55.645Z,48.40
2018-03-22T16:50:23.093Z,48.20
2018-03-22T16:52:50.561Z,48.60
2018-03-22T16:55:18.794Z,48.20
2018-03-22T16:57:46.318Z,48.20
2018-03-22T17:00:13.792Z,48.70
2018-03-22T17:02:41.258Z,48.90
2018-03-22T17:05:08.698Z,49.40
2018-03-22T17:07:36.232Z,50.00
2018-03-22T17:10:03.716Z,50.60
2018-03-22T17:12:31.151Z,51.50
2018-03-22T17:14:58.599Z,53.80
2018-03-22T17:17:26.063Z,56.80
2018-03-22T17:19:53.531Z,58.90
2018-03-22T17:22:20.967Z,60.30
2018-03-22T17:24:48.436Z,62.50
2018-03-22T17:27:15.891Z,66.40
2018-03-22T17:29:43.362Z,68.70
2018-03-22T17:32:10.824Z,71.50
2018-03-22T17:34:38.324Z,73.10
2018-03-22T17:37:05.791Z,75.10
2018-03-22T17:39:33.267Z,75.20
2018-03-22T17:42:00.700Z,75.30
2018-03-22T17:44:28.144Z,76.20
2018-03-22T17:46:55.603Z,77.00
2018-03-22T17:49:23.059Z,78.20
2018-03-22T17:51:50.511Z,80.70
2018-03-22T17:54:17.985Z,81.80
2018-03-22T17:56:45.438Z,82.70
2018-03-22T17:59:12.895Z,85.20
2018-03-22T18:01:40.335Z,87.50
2018-03-22T18:04:07.808Z,89.00
2018-03-22T18:06:35.317Z,86.80
2018-03-22T18:09:02.758Z,87.70
2018-03-22T18:11:30.983Z,88.10
2018-03-22T18:13:58.489Z,88.00
2018-03-22T18:16:26.710Z,87.90
2018-03-22T18:18:54.176Z,88.60
2018-03-22T18:21:21.616Z,89.20
2018-03-22T18:23:49.078Z,88.70
2018-03-22T18:26:16.535Z,89.20
2018-03-22T18:28:43.975Z,89.30
2018-03-22T18:31:11.429Z,89.50
2018-03-22T18:33:38.883Z,90.10
2018-03-22T18:36:06.565Z,90.70
2018-03-22T18:38:33.968Z,91.80
2018-03-22T18:41:01.432Z,91.90
2018-03-22T18:43:28.897Z,92.00
2018-03-22T18:45:56.335Z,91.30
2018-03-22T18:48:23.796Z,90.60
2018-03-22T18:50:51.255Z,90.70
2018-03-22T18:53:19.468Z,90.80
2018-03-22T18:55:46.920Z,90.80
2018-03-22T18:58:14.573Z,90.10
2018-03-22T19:00:42.012Z,90.10
2018-03-22T19:03:09.460Z,90.10
2018-03-22T19:05:36.904Z,89.10
2018-03-22T19:08:04.379Z,90.00
2018-03-22T19:10:31.804Z,90.50
2018-03-22T19:12:59.241Z,91.60
2018-03-22T19:15:26.708Z,91.40
2018-03-22T19:17:54.156Z,92.70
2018-03-22T19:20:21.716Z,92.60
2018-03-22T19:22:49.176Z,93.30
2018-03-22T19:25:16.612Z,92.80
2018-03-22T19:27:44.134Z,93.00
2018-03-22T19:30:11.569Z,93.80
2018-03-22T19:32:39.020Z,93.80
2018-03-22T19:35:06.460Z,92.60
2018-03-22T19:37:33.917Z,92.60
2018-03-22T19:40:01.376Z,92.50
2018-03-22T19:42:28.829Z,91.90
2018-03-22T19:44:56.272Z,92.20
2018-03-22T19:47:23.724Z,91.90
2018-03-22T19:49:51.167Z,92.50
2018-03-22T19:52:18.625Z,92.20
2018-03-22T19:54:46.067Z,91.80
2018-03-22T19:57:13.547Z,91.70
2018-03-22T19:59:41.012Z,92.90
2018-03-22T20:02:08.456Z,92.80
2018-03-22T20:04:35.916Z,93.40
2018-03-22T20:07:03.374Z,93.20
2018-03-22T20:09:30.815Z,93.20
2018-03-22T20:11:58.271Z,92.40
2018-03-22T20:14:25.731Z,92.00
2018-03-22T20:16:53.172Z,91.80
2018-03-22T20:19:20.630Z,91.50
2018-03-22T20:21:48.109Z,91.40
2018-03-22T20:24:16.327Z,90.80
2018-03-22T20:26:43.936Z,90.80
2018-03-22T20:29:11.388Z,90.30
2018-03-22T20:31:38.830Z,90.20
2018-03-22T20:34:06.284Z,89.70
2018-03-22T20:36:33.725Z,88.30
2018-03-22T20:39:01.191Z,88.80
2018-03-22T20:41:28.652Z,89.30
2018-03-22T20:43:56.090Z,87.80
2018-03-22T20:46:23.544Z,86.80
2018-03-22T20:48:51.063Z,87.20
2018-03-22T20:51:19.287Z,86.80
2018-03-22T20:53:46.725Z,86.70
2018-03-22T20:56:14.189Z,85.90
2018-03-22T20:58:41.630Z,86.10
2018-03-22T21:01:09.141Z,85.70
2018-03-22T21:03:36.609Z,85.00
2018-03-22T21:06:04.107Z,84.90
2018-03-22T21:08:31.502Z,85.00
2018-03-22T21:10:58.960Z,84.70
2018-03-22T21:13:26.417Z,85.00
2018-03-22T21:15:53.884Z,84.50
2018-03-22T21:18:21.332Z,83.80
2018-03-22T21:20:48.838Z,84.00
2018-03-22T21:23:16.239Z,84.30
2018-03-22T21:25:43.688Z,84.50
2018-03-22T21:28:11.143Z,84.80
2018-03-22T21:30:38.768Z,84.20
2018-03-22T21:33:06.952Z,83.80
2018-03-22T21:35:34.413Z,83.80
2018-03-22T21:38:01.878Z,83.40
2018-03-22T21:40:29.310Z,86.40
2018-03-22T21:42:56.760Z,88.80
2018-03-22T21:45:24.204Z,89.60
2018-03-22T21:47:51.677Z,90.80
2018-03-22T21:50:19.115Z,91.00
2018-03-22T21:52:46.558Z,90.80
2018-03-22T21:55:14.016Z,91.70
2018-03-22T21:57:41.457Z,91.80
2018-03-22T22:00:08.905Z,92.40
2018-03-22T22:02:36.355Z,92.10
2018-03-22T22:05:03.817Z,92.80
2018-03-22T22:07:31.269Z,93.10
2018-03-22T22:09:58.707Z,94.00
2018-03-22T22:12:26.172Z,95.00
2018-03-22T22:14:53.612Z,95.20
2018-03-22T22:17:21.067Z,96.40
2018-03-22T22:19:48.504Z,96.80
2018-03-22T22:22:15.958Z,97.60
2018-03-22T22:24:43.415Z,97.70
2018-03-22T22:27:10.875Z,98.40
2018-03-22T22:29:38.327Z,99.00
2018-03-22T22:32:05.763Z,99.10
2018-03-22T22:34:33.213Z,99.10
2018-03-22T22:37:00.673Z,99.40
2018-03-22T22:39:28.110Z,98.40
2018-03-22T22:41:55.551Z,98.40
2018-03-22T22:44:22.998Z,98.00
2018-03-22T22:46:51.227Z,97.60
2018-03-22T22:49:18.663Z,97.60
2018-03-22T22:51:46.114Z,97.20
2018-03-22T22:54:13.618Z,96.10
2018-03-22T22:56:41.083Z,96.40
2018-03-22T22:59:08.536Z,96.10
2018-03-22T23:01:35.972Z,95.70
2018-03-22T23:04:03.438Z,95.80
2018-03-22T23:06:31.680Z,95.30
2018-03-22T23:08:59.129Z,95.00
2018-03-22T23:11:26.596Z,95.00
2018-03-22T23:13:54.037Z,94.70
2018-03-22T23:16:21.473Z,94.60
2018-03-22T23:18:49.756Z,94.40
2018-03-22T23:21:17.191Z,94.40
2018-03-22T23:23:44.632Z,94.50
2018-03-22T23:26:12.068Z,94.00
2018-03-22T23:28:39.648Z,94.00
2018-03-22T23:31:07.088Z,94.30
2018-03-22T23:33:34.527Z,94.10
2018-03-22T23:36:02.027Z,94.10
2018-03-22T23:38:29.459Z,93.80
2018-03-22T23:40:56.994Z,93.80
2018-03-22T23:43:24.621Z,93.40
2018-03-22T23:45:52.109Z,93.70
2018-03-22T23:48:19.605Z,94.30
2018-03-22T23:50:47.048Z,94.40
2018-03-22T23:53:14.492Z,94.70
2018-03-22T23:55:41.940Z,94.60
2018-03-22T23:58:09.391Z,95.40
